sensor_id;sensor_type;location;lat;lon;timestamp;P1;durP1;ratioP1;P2;durP2;ratioP2
65691;SDS011;52411;52.716;6.696;2022-09-21T00:00:40;10.63;;;5.90;;
65691;SDS011;52411;52.716;6.696;2022-09-21T00:03:05;14.77;;;6.00;;
65691;SDS011;52411;52.716;6.696;2022-09-21T00:05:32;10.88;;;3.72;;
65691;SDS011;52411;52.716;6.696;2022-09-21T00:07:58;6.70;;;4.10;;
65691;SDS011;52411;52.716;6.696;2022-09-21T00:10:25;228.90;;;9.43;;
65691;SDS011;52411;52.716;6.696;2022-09-21T00:12:51;12.27;;;6.10;;
65691;SDS011;52411;52.716;6.696;2022-09-21T00:15:17;6.10;;;4.40;;
65691;SDS011;52411;52.716;6.696;2022-09-21T00:17:43;10.23;;;5.10;;
65691;SDS011;52411;52.716;6.696;2022-09-21T00:20:09;9.98;;;5.07;;
65691;SDS011;52411;52.716;6.696;2022-09-21T00:22:35;8.60;;;5.55;;
65691;SDS011;52411;52.716;6.696;2022-09-21T00:25:02;11.73;;;5.57;;
65691;SDS011;52411;52.716;6.696;2022-09-21T00:27:28;9.20;;;5.03;;
65691;SDS011;52411;52.716;6.696;2022-09-21T00:29:55;9.55;;;4.68;;
65691;SDS011;52411;52.716;6.696;2022-09-21T00:32:21;24.42;;;4.20;;
65691;SDS011;52411;52.716;6.696;2022-09-21T00:34:49;320.80;;;11.57;;
65691;SDS011;52411;52.716;6.696;2022-09-21T00:37:16;186.50;;;7.55;;
65691;SDS011;52411;52.716;6.696;2022-09-21T00:39:44;13.98;;;4.60;;
65691;SDS011;52411;52.716;6.696;2022-09-21T00:42:17;7.75;;;4.85;;
65691;SDS011;52411;52.716;6.696;2022-09-21T00:44:48;10.60;;;4.03;;
65691;SDS011;52411;52.716;6.696;2022-09-21T00:47:15;35.50;;;4.20;;
65691;SDS011;52411;52.716;6.696;2022-09-21T00:49:44;31.42;;;4.32;;
65691;SDS011;52411;52.716;6.696;2022-09-21T00:52:14;5.38;;;2.92;;
65691;SDS011;52411;52.716;6.696;2022-09-21T00:54:47;4.68;;;2.50;;
65691;SDS011;52411;52.716;6.696;2022-09-21T00:57:16;2.92;;;2.25;;
65691;SDS011;52411;52.716;6.696;2022-09-21T00:59:45;3.15;;;2.10;;
65691;SDS011;52411;52.716;6.696;2022-09-21T01:02:14;13.20;;;4.10;;
65691;SDS011;52411;52.716;6.696;2022-09-21T01:04:41;11.80;;;4.95;;
65691;SDS011;52411;52.716;6.696;2022-09-21T01:07:08;6.78;;;4.20;;
65691;SDS011;52411;52.716;6.696;2022-09-21T01:09:38;9.27;;;4.95;;
65691;SDS011;52411;52.716;6.696;2022-09-21T01:12:13;10.85;;;4.75;;
65691;SDS011;52411;52.716;6.696;2022-09-21T01:14:58;17.70;;;5.60;;
65691;SDS011;52411;52.716;6.696;2022-09-21T01:17:44;9.48;;;5.18;;
65691;SDS011;52411;52.716;6.696;2022-09-21T01:20:24;5.97;;;4.00;;
65691;SDS011;52411;52.716;6.696;2022-09-21T01:29:09;6.75;;;4.18;;
65691;SDS011;52411;52.716;6.696;2022-09-21T01:31:44;13.25;;;4.43;;
65691;SDS011;52411;52.716;6.696;2022-09-21T01:35:02;46.92;;;5.85;;
65691;SDS011;52411;52.716;6.696;2022-09-21T01:37:11;7.20;;;3.95;;
65691;SDS011;52411;52.716;6.696;2022-09-21T01:39:44;6.07;;;3.50;;
65691;SDS011;52411;52.716;6.696;2022-09-21T01:42:14;6.95;;;2.92;;
65691;SDS011;52411;52.716;6.696;2022-09-21T01:44:41;6.05;;;3.22;;
65691;SDS011;52411;52.716;6.696;2022-09-21T01:47:09;14.73;;;3.85;;
65691;SDS011;52411;52.716;6.696;2022-09-21T01:49:46;45.33;;;5.10;;
65691;SDS011;52411;52.716;6.696;2022-09-21T01:52:22;35.83;;;4.60;;
65691;SDS011;52411;52.716;6.696;2022-09-21T01:55:26;13.10;;;2.80;;
65691;SDS011;52411;52.716;6.696;2022-09-21T02:00:23;5.13;;;2.58;;
65691;SDS011;52411;52.716;6.696;2022-09-21T02:02:54;5.90;;;3.13;;
65691;SDS011;52411;52.716;6.696;2022-09-21T02:05:26;5.65;;;2.92;;
65691;SDS011;52411;52.716;6.696;2022-09-21T02:07:54;4.13;;;3.05;;
65691;SDS011;52411;52.716;6.696;2022-09-21T02:10:25;4.55;;;2.65;;
65691;SDS011;52411;52.716;6.696;2022-09-21T02:12:57;4.20;;;2.92;;
65691;SDS011;52411;52.716;6.696;2022-09-21T02:15:31;3.90;;;2.42;;
65691;SDS011;52411;52.716;6.696;2022-09-21T02:20:55;5.03;;;2.33;;
65691;SDS011;52411;52.716;6.696;2022-09-21T02:23:26;6.10;;;1.98;;
65691;SDS011;52411;52.716;6.696;2022-09-21T02:28:50;24.23;;;2.75;;
65691;SDS011;52411;52.716;6.696;2022-09-21T02:34:15;11.25;;;3.05;;
65691;SDS011;52411;52.716;6.696;2022-09-21T02:36:46;11.30;;;1.88;;
65691;SDS011;52411;52.716;6.696;2022-09-21T02:39:20;48.30;;;4.53;;
65691;SDS011;52411;52.716;6.696;2022-09-21T02:42:04;39.17;;;3.40;;
65691;SDS011;52411;52.716;6.696;2022-09-21T02:44:38;78.68;;;3.67;;
65691;SDS011;52411;52.716;6.696;2022-09-21T02:47:15;107.68;;;6.82;;
65691;SDS011;52411;52.716;6.696;2022-09-21T02:49:48;6.53;;;2.80;;
65691;SDS011;52411;52.716;6.696;2022-09-21T02:52:16;5.15;;;3.20;;
65691;SDS011;52411;52.716;6.696;2022-09-21T02:54:45;10.18;;;3.70;;
65691;SDS011;52411;52.716;6.696;2022-09-21T02:57:14;11.10;;;4.93;;
65691;SDS011;52411;52.716;6.696;2022-09-21T02:59:42;40.60;;;4.70;;
65691;SDS011;52411;52.716;6.696;2022-09-21T03:02:08;6.43;;;3.75;;
65691;SDS011;52411;52.716;6.696;2022-09-21T03:04:36;113.57;;;4.97;;
65691;SDS011;52411;52.716;6.696;2022-09-21T03:07:05;5.68;;;3.63;;
65691;SDS011;52411;52.716;6.696;2022-09-21T03:09:34;104.50;;;7.43;;
65691;SDS011;52411;52.716;6.696;2022-09-21T03:12:00;20.63;;;5.65;;
65691;SDS011;52411;52.716;6.696;2022-09-21T03:14:26;6.43;;;3.90;;
65691;SDS011;52411;52.716;6.696;2022-09-21T03:16:51;7.07;;;3.60;;
65691;SDS011;52411;52.716;6.696;2022-09-21T03:19:18;6.07;;;3.50;;
65691;SDS011;52411;52.716;6.696;2022-09-21T03:21:44;6.10;;;3.75;;
65691;SDS011;52411;52.716;6.696;2022-09-21T03:24:09;4.60;;;3.22;;
65691;SDS011;52411;52.716;6.696;2022-09-21T03:26:35;4.30;;;3.00;;
65691;SDS011;52411;52.716;6.696;2022-09-21T03:29:01;23.05;;;3.95;;
65691;SDS011;52411;52.716;6.696;2022-09-21T03:31:28;45.13;;;2.92;;
65691;SDS011;52411;52.716;6.696;2022-09-21T03:33:53;106.85;;;4.25;;
65691;SDS011;52411;52.716;6.696;2022-09-21T03:36:19;82.18;;;3.75;;
65691;SDS011;52411;52.716;6.696;2022-09-21T03:38:45;128.48;;;6.30;;
65691;SDS011;52411;52.716;6.696;2022-09-21T03:41:10;84.72;;;5.43;;
65691;SDS011;52411;52.716;6.696;2022-09-21T03:43:38;81.32;;;4.60;;
65691;SDS011;52411;52.716;6.696;2022-09-21T03:46:04;64.65;;;3.95;;
65691;SDS011;52411;52.716;6.696;2022-09-21T03:48:29;71.68;;;4.35;;
65691;SDS011;52411;52.716;6.696;2022-09-21T03:50:56;61.67;;;4.03;;
65691;SDS011;52411;52.716;6.696;2022-09-21T03:53:22;29.80;;;2.97;;
65691;SDS011;52411;52.716;6.696;2022-09-21T03:55:48;111.47;;;4.85;;
65691;SDS011;52411;52.716;6.696;2022-09-21T03:58:14;135.38;;;5.30;;
65691;SDS011;52411;52.716;6.696;2022-09-21T04:00:40;112.25;;;4.80;;
65691;SDS011;52411;52.716;6.696;2022-09-21T04:03:06;9.07;;;2.30;;
65691;SDS011;52411;52.716;6.696;2022-09-21T04:05:32;2.50;;;2.20;;
65691;SDS011;52411;52.716;6.696;2022-09-21T04:07:58;4.18;;;2.47;;
65691;SDS011;52411;52.716;6.696;2022-09-21T04:10:26;4.72;;;2.83;;
65691;SDS011;52411;52.716;6.696;2022-09-21T04:12:57;13.20;;;3.75;;
65691;SDS011;52411;52.716;6.696;2022-09-21T04:15:27;55.88;;;5.13;;
65691;SDS011;52411;52.716;6.696;2022-09-21T04:17:53;19.95;;;3.63;;
65691;SDS011;52411;52.716;6.696;2022-09-21T04:20:19;74.90;;;5.20;;
65691;SDS011;52411;52.716;6.696;2022-09-21T04:22:46;47.40;;;5.22;;
65691;SDS011;52411;52.716;6.696;2022-09-21T04:25:11;24.73;;;3.45;;
65691;SDS011;52411;52.716;6.696;2022-09-21T04:27:38;14.80;;;3.40;;
65691;SDS011;52411;52.716;6.696;2022-09-21T04:30:04;17.92;;;3.35;;
65691;SDS011;52411;52.716;6.696;2022-09-21T04:32:30;103.95;;;5.70;;
65691;SDS011;52411;52.716;6.696;2022-09-21T04:34:56;124.05;;;5.43;;
65691;SDS011;52411;52.716;6.696;2022-09-21T04:37:22;37.22;;;3.92;;
65691;SDS011;52411;52.716;6.696;2022-09-21T04:39:47;36.05;;;3.78;;
65691;SDS011;52411;52.716;6.696;2022-09-21T04:42:13;23.65;;;3.40;;
65691;SDS011;52411;52.716;6.696;2022-09-21T04:44:39;27.33;;;4.00;;
65691;SDS011;52411;52.716;6.696;2022-09-21T04:47:04;14.18;;;3.75;;
65691;SDS011;52411;52.716;6.696;2022-09-21T04:49:30;6.00;;;3.60;;
65691;SDS011;52411;52.716;6.696;2022-09-21T04:51:56;21.05;;;3.88;;
65691;SDS011;52411;52.716;6.696;2022-09-21T04:54:21;15.45;;;3.13;;
65691;SDS011;52411;52.716;6.696;2022-09-21T04:56:48;3.30;;;2.70;;
65691;SDS011;52411;52.716;6.696;2022-09-21T04:59:13;16.45;;;4.13;;
65691;SDS011;52411;52.716;6.696;2022-09-21T05:01:39;22.20;;;3.70;;
65691;SDS011;52411;52.716;6.696;2022-09-21T05:04:04;26.83;;;4.22;;
65691;SDS011;52411;52.716;6.696;2022-09-21T05:06:31;51.80;;;5.60;;
65691;SDS011;52411;52.716;6.696;2022-09-21T05:08:57;57.47;;;5.50;;
65691;SDS011;52411;52.716;6.696;2022-09-21T05:11:42;32.90;;;4.65;;
65691;SDS011;52411;52.716;6.696;2022-09-21T05:14:08;54.55;;;4.47;;
65691;SDS011;52411;52.716;6.696;2022-09-21T05:16:34;36.95;;;2.92;;
65691;SDS011;52411;52.716;6.696;2022-09-21T05:19:00;36.15;;;3.00;;
65691;SDS011;52411;52.716;6.696;2022-09-21T05:21:27;44.90;;;3.50;;
65691;SDS011;52411;52.716;6.696;2022-09-21T05:23:53;27.20;;;3.17;;
65691;SDS011;52411;52.716;6.696;2022-09-21T05:26:19;20.63;;;3.10;;
65691;SDS011;52411;52.716;6.696;2022-09-21T05:28:45;15.38;;;2.90;;
65691;SDS011;52411;52.716;6.696;2022-09-21T05:34:01;8.93;;;3.55;;
65691;SDS011;52411;52.716;6.696;2022-09-21T05:36:45;9.48;;;3.50;;
65691;SDS011;52411;52.716;6.696;2022-09-21T05:39:22;4.97;;;3.83;;
65691;SDS011;52411;52.716;6.696;2022-09-21T05:41:48;6.90;;;4.35;;
65691;SDS011;52411;52.716;6.696;2022-09-21T05:44:14;4.70;;;3.83;;
65691;SDS011;52411;52.716;6.696;2022-09-21T05:46:40;4.22;;;3.40;;
65691;SDS011;52411;52.716;6.696;2022-09-21T05:49:34;6.72;;;3.15;;
65691;SDS011;52411;52.716;6.696;2022-09-21T05:52:24;31.00;;;3.72;;
65691;SDS011;52411;52.716;6.696;2022-09-21T06:03:40;3.88;;;2.50;;
65691;SDS011;52411;52.716;6.696;2022-09-21T06:06:07;5.88;;;2.72;;
65691;SDS011;52411;52.716;6.696;2022-09-21T06:08:33;8.93;;;2.67;;
65691;SDS011;52411;52.716;6.696;2022-09-21T06:10:59;3.53;;;2.72;;
65691;SDS011;52411;52.716;6.696;2022-09-21T06:13:25;10.23;;;3.67;;
65691;SDS011;52411;52.716;6.696;2022-09-21T06:15:51;13.18;;;3.20;;
65691;SDS011;52411;52.716;6.696;2022-09-21T06:18:17;11.50;;;3.08;;
65691;SDS011;52411;52.716;6.696;2022-09-21T06:20:44;12.65;;;4.22;;
65691;SDS011;52411;52.716;6.696;2022-09-21T06:23:11;35.83;;;4.13;;
65691;SDS011;52411;52.716;6.696;2022-09-21T06:25:38;31.75;;;3.70;;
65691;SDS011;52411;52.716;6.696;2022-09-21T06:28:04;31.83;;;4.50;;
65691;SDS011;52411;52.716;6.696;2022-09-21T06:30:32;20.17;;;5.68;;
65691;SDS011;52411;52.716;6.696;2022-09-21T06:33:02;78.40;;;7.68;;
65691;SDS011;52411;52.716;6.696;2022-09-21T06:35:29;129.23;;;10.32;;
65691;SDS011;52411;52.716;6.696;2022-09-21T06:37:57;43.20;;;8.10;;
65691;SDS011;52411;52.716;6.696;2022-09-21T06:40:23;160.57;;;12.52;;
65691;SDS011;52411;52.716;6.696;2022-09-21T06:42:49;96.07;;;11.38;;
65691;SDS011;52411;52.716;6.696;2022-09-21T06:45:21;127.70;;;12.77;;
65691;SDS011;52411;52.716;6.696;2022-09-21T06:47:46;91.63;;;12.88;;
65691;SDS011;52411;52.716;6.696;2022-09-21T06:50:12;85.88;;;11.18;;
65691;SDS011;52411;52.716;6.696;2022-09-21T06:52:38;79.85;;;10.95;;
65691;SDS011;52411;52.716;6.696;2022-09-21T06:55:05;59.00;;;10.70;;
65691;SDS011;52411;52.716;6.696;2022-09-21T06:57:30;31.40;;;11.55;;
65691;SDS011;52411;52.716;6.696;2022-09-21T06:59:56;31.17;;;11.35;;
65691;SDS011;52411;52.716;6.696;2022-09-21T07:02:22;32.75;;;11.40;;
65691;SDS011;52411;52.716;6.696;2022-09-21T07:04:47;25.20;;;12.40;;
65691;SDS011;52411;52.716;6.696;2022-09-21T07:07:13;23.20;;;12.45;;
65691;SDS011;52411;52.716;6.696;2022-09-21T07:09:39;28.65;;;13.52;;
65691;SDS011;52411;52.716;6.696;2022-09-21T07:12:04;22.92;;;13.18;;
65691;SDS011;52411;52.716;6.696;2022-09-21T07:14:32;20.42;;;12.82;;
65691;SDS011;52411;52.716;6.696;2022-09-21T07:16:58;16.77;;;11.95;;
65691;SDS011;52411;52.716;6.696;2022-09-21T07:19:24;17.67;;;13.10;;
65691;SDS011;52411;52.716;6.696;2022-09-21T07:21:52;22.25;;;15.10;;
65691;SDS011;52411;52.716;6.696;2022-09-21T07:24:18;26.00;;;15.98;;
65691;SDS011;52411;52.716;6.696;2022-09-21T07:26:43;28.92;;;17.13;;
65691;SDS011;52411;52.716;6.696;2022-09-21T07:29:09;25.88;;;17.00;;
65691;SDS011;52411;52.716;6.696;2022-09-21T07:31:35;29.00;;;17.15;;
65691;SDS011;52411;52.716;6.696;2022-09-21T07:34:00;26.02;;;16.38;;
65691;SDS011;52411;52.716;6.696;2022-09-21T07:36:26;21.00;;;15.23;;
65691;SDS011;52411;52.716;6.696;2022-09-21T07:38:52;23.98;;;15.80;;
65691;SDS011;52411;52.716;6.696;2022-09-21T07:41:18;25.70;;;17.02;;
65691;SDS011;52411;52.716;6.696;2022-09-21T07:43:44;25.95;;;16.58;;
65691;SDS011;52411;52.716;6.696;2022-09-21T07:46:11;22.30;;;14.93;;
65691;SDS011;52411;52.716;6.696;2022-09-21T07:48:38;27.10;;;14.93;;
65691;SDS011;52411;52.716;6.696;2022-09-21T07:51:05;25.60;;;14.55;;
65691;SDS011;52411;52.716;6.696;2022-09-21T07:53:37;23.45;;;13.48;;
65691;SDS011;52411;52.716;6.696;2022-09-21T07:56:05;28.93;;;15.07;;
65691;SDS011;52411;52.716;6.696;2022-09-21T07:58:32;23.92;;;13.90;;
65691;SDS011;52411;52.716;6.696;2022-09-21T08:01:17;24.65;;;13.77;;
65691;SDS011;52411;52.716;6.696;2022-09-21T08:03:43;27.77;;;14.13;;
65691;SDS011;52411;52.716;6.696;2022-09-21T08:06:08;31.65;;;16.80;;
65691;SDS011;52411;52.716;6.696;2022-09-21T08:08:34;23.13;;;15.18;;
65691;SDS011;52411;52.716;6.696;2022-09-21T08:11:01;31.40;;;14.68;;
65691;SDS011;52411;52.716;6.696;2022-09-21T08:13:28;24.38;;;14.55;;
65691;SDS011;52411;52.716;6.696;2022-09-21T08:15:57;21.83;;;15.10;;
65691;SDS011;52411;52.716;6.696;2022-09-21T08:18:24;30.95;;;16.80;;
65691;SDS011;52411;52.716;6.696;2022-09-21T08:20:53;34.45;;;19.92;;
65691;SDS011;52411;52.716;6.696;2022-09-21T08:23:23;27.15;;;17.45;;
65691;SDS011;52411;52.716;6.696;2022-09-21T08:25:50;32.15;;;16.75;;
65691;SDS011;52411;52.716;6.696;2022-09-21T08:28:16;28.67;;;16.70;;
65691;SDS011;52411;52.716;6.696;2022-09-21T08:30:42;31.08;;;20.05;;
65691;SDS011;52411;52.716;6.696;2022-09-21T08:33:08;25.92;;;15.13;;
65691;SDS011;52411;52.716;6.696;2022-09-21T08:35:34;27.23;;;13.65;;
65691;SDS011;52411;52.716;6.696;2022-09-21T08:38:00;27.25;;;14.90;;
65691;SDS011;52411;52.716;6.696;2022-09-21T08:40:26;20.67;;;11.00;;
65691;SDS011;52411;52.716;6.696;2022-09-21T08:42:59;23.75;;;11.63;;
65691;SDS011;52411;52.716;6.696;2022-09-21T08:45:32;22.80;;;13.02;;
65691;SDS011;52411;52.716;6.696;2022-09-21T08:48:04;23.40;;;13.23;;
65691;SDS011;52411;52.716;6.696;2022-09-21T08:50:55;18.95;;;11.82;;
65691;SDS011;52411;52.716;6.696;2022-09-21T08:53:29;18.27;;;11.43;;
65691;SDS011;52411;52.716;6.696;2022-09-21T08:56:00;17.63;;;8.20;;
65691;SDS011;52411;52.716;6.696;2022-09-21T08:58:28;17.98;;;8.27;;
65691;SDS011;52411;52.716;6.696;2022-09-21T09:06:13;14.70;;;6.00;;
65691;SDS011;52411;52.716;6.696;2022-09-21T09:08:57;16.75;;;7.13;;
65691;SDS011;52411;52.716;6.696;2022-09-21T09:11:41;15.80;;;5.65;;
65691;SDS011;52411;52.716;6.696;2022-09-21T09:14:54;18.48;;;6.50;;
65691;SDS011;52411;52.716;6.696;2022-09-21T09:23:01;11.10;;;5.55;;
65691;SDS011;52411;52.716;6.696;2022-09-21T09:25:35;13.40;;;6.28;;
65691;SDS011;52411;52.716;6.696;2022-09-21T09:28:16;12.77;;;4.80;;
65691;SDS011;52411;52.716;6.696;2022-09-21T09:30:44;14.00;;;5.15;;
65691;SDS011;52411;52.716;6.696;2022-09-21T09:41:27;12.27;;;4.50;;
65691;SDS011;52411;52.716;6.696;2022-09-21T09:46:57;10.93;;;3.75;;
65691;SDS011;52411;52.716;6.696;2022-09-21T09:52:17;10.27;;;2.97;;
65691;SDS011;52411;52.716;6.696;2022-09-21T09:54:42;25.27;;;4.28;;
65691;SDS011;52411;52.716;6.696;2022-09-21T09:57:08;12.32;;;2.92;;
65691;SDS011;52411;52.716;6.696;2022-09-21T09:59:48;9.73;;;3.00;;
65691;SDS011;52411;52.716;6.696;2022-09-21T10:02:23;10.35;;;3.10;;
65691;SDS011;52411;52.716;6.696;2022-09-21T10:12:51;11.55;;;2.42;;
65691;SDS011;52411;52.716;6.696;2022-09-21T10:15:17;10.15;;;2.65;;
65691;SDS011;52411;52.716;6.696;2022-09-21T10:17:44;8.35;;;2.40;;
65691;SDS011;52411;52.716;6.696;2022-09-21T10:20:16;13.27;;;2.72;;
65691;SDS011;52411;52.716;6.696;2022-09-21T10:22:45;12.30;;;3.30;;
65691;SDS011;52411;52.716;6.696;2022-09-21T10:25:17;12.25;;;3.03;;
65691;SDS011;52411;52.716;6.696;2022-09-21T10:27:45;10.65;;;2.78;;
65691;SDS011;52411;52.716;6.696;2022-09-21T10:30:35;8.90;;;2.28;;
65691;SDS011;52411;52.716;6.696;2022-09-21T10:33:03;6.90;;;2.58;;
65691;SDS011;52411;52.716;6.696;2022-09-21T10:35:49;9.15;;;2.40;;
65691;SDS011;52411;52.716;6.696;2022-09-21T10:38:16;8.65;;;2.22;;
65691;SDS011;52411;52.716;6.696;2022-09-21T10:40:44;5.07;;;1.48;;
65691;SDS011;52411;52.716;6.696;2022-09-21T10:43:24;6.55;;;1.45;;
65691;SDS011;52411;52.716;6.696;2022-09-21T10:45:53;7.68;;;1.50;;
65691;SDS011;52411;52.716;6.696;2022-09-21T10:48:21;4.15;;;1.58;;
65691;SDS011;52411;52.716;6.696;2022-09-21T10:50:49;8.75;;;1.85;;
65691;SDS011;52411;52.716;6.696;2022-09-21T10:53:32;6.88;;;1.50;;
65691;SDS011;52411;52.716;6.696;2022-09-21T10:58:26;9.13;;;1.73;;
65691;SDS011;52411;52.716;6.696;2022-09-21T11:00:52;5.40;;;1.80;;
65691;SDS011;52411;52.716;6.696;2022-09-21T11:05:54;5.97;;;1.80;;
65691;SDS011;52411;52.716;6.696;2022-09-21T11:08:26;8.38;;;1.90;;
65691;SDS011;52411;52.716;6.696;2022-09-21T11:13:59;4.97;;;1.65;;
65691;SDS011;52411;52.716;6.696;2022-09-21T11:16:40;9.45;;;2.25;;
65691;SDS011;52411;52.716;6.696;2022-09-21T11:19:20;8.15;;;1.95;;
65691;SDS011;52411;52.716;6.696;2022-09-21T11:40:40;7.78;;;1.30;;
65691;SDS011;52411;52.716;6.696;2022-09-21T11:48:40;6.93;;;1.77;;
65691;SDS011;52411;52.716;6.696;2022-09-21T11:51:27;7.88;;;1.63;;
65691;SDS011;52411;52.716;6.696;2022-09-21T11:57:08;4.50;;;1.27;;
65691;SDS011;52411;52.716;6.696;2022-09-21T12:15:51;4.78;;;1.45;;
65691;SDS011;52411;52.716;6.696;2022-09-21T12:18:53;7.95;;;1.42;;
65691;SDS011;52411;52.716;6.696;2022-09-21T12:21:42;4.82;;;1.23;;
65691;SDS011;52411;52.716;6.696;2022-09-21T12:24:17;6.47;;;1.60;;
65691;SDS011;52411;52.716;6.696;2022-09-21T12:26:52;4.28;;;1.17;;
65691;SDS011;52411;52.716;6.696;2022-09-21T12:29:43;5.22;;;1.42;;
65691;SDS011;52411;52.716;6.696;2022-09-21T12:34:53;8.50;;;1.30;;
65691;SDS011;52411;52.716;6.696;2022-09-21T12:37:37;7.18;;;1.33;;
65691;SDS011;52411;52.716;6.696;2022-09-21T12:40:16;3.33;;;1.33;;
65691;SDS011;52411;52.716;6.696;2022-09-21T12:42:50;6.15;;;1.38;;
65691;SDS011;52411;52.716;6.696;2022-09-21T12:45:20;7.38;;;1.60;;
65691;SDS011;52411;52.716;6.696;2022-09-21T12:47:58;8.75;;;1.58;;
65691;SDS011;52411;52.716;6.696;2022-09-21T12:50:36;4.95;;;1.42;;
65691;SDS011;52411;52.716;6.696;2022-09-21T12:53:33;3.70;;;1.30;;
65691;SDS011;52411;52.716;6.696;2022-09-21T12:56:04;4.23;;;1.20;;
65691;SDS011;52411;52.716;6.696;2022-09-21T13:01:47;3.65;;;1.20;;
65691;SDS011;52411;52.716;6.696;2022-09-21T13:07:19;4.82;;;1.20;;
65691;SDS011;52411;52.716;6.696;2022-09-21T13:09:47;4.32;;;1.40;;
65691;SDS011;52411;52.716;6.696;2022-09-21T13:12:19;2.67;;;1.10;;
65691;SDS011;52411;52.716;6.696;2022-09-21T13:14:49;3.67;;;1.60;;
65691;SDS011;52411;52.716;6.696;2022-09-21T13:17:20;7.80;;;1.20;;
65691;SDS011;52411;52.716;6.696;2022-09-21T13:20:02;4.80;;;1.05;;
65691;SDS011;52411;52.716;6.696;2022-09-21T13:22:31;3.50;;;1.10;;
65691;SDS011;52411;52.716;6.696;2022-09-21T13:25:00;6.40;;;1.35;;
65691;SDS011;52411;52.716;6.696;2022-09-21T13:38:31;5.25;;;1.05;;
65691;SDS011;52411;52.716;6.696;2022-09-21T13:49:13;5.75;;;1.55;;
65691;SDS011;52411;52.716;6.696;2022-09-21T13:54:19;3.53;;;1.15;;
65691;SDS011;52411;52.716;6.696;2022-09-21T13:56:56;3.92;;;1.40;;
65691;SDS011;52411;52.716;6.696;2022-09-21T13:59:24;4.43;;;1.35;;
65691;SDS011;52411;52.716;6.696;2022-09-21T14:01:51;7.32;;;1.40;;
65691;SDS011;52411;52.716;6.696;2022-09-21T14:04:26;3.83;;;1.20;;
65691;SDS011;52411;52.716;6.696;2022-09-21T14:06:55;4.82;;;1.48;;
65691;SDS011;52411;52.716;6.696;2022-09-21T14:10:04;7.43;;;1.30;;
65691;SDS011;52411;52.716;6.696;2022-09-21T14:12:23;5.18;;;1.45;;
65691;SDS011;52411;52.716;6.696;2022-09-21T14:15:29;6.80;;;1.15;;
65691;SDS011;52411;52.716;6.696;2022-09-21T14:20:40;3.20;;;1.10;;
65691;SDS011;52411;52.716;6.696;2022-09-21T14:24:06;4.43;;;1.15;;
65691;SDS011;52411;52.716;6.696;2022-09-21T14:32:15;3.95;;;1.17;;
65691;SDS011;52411;52.716;6.696;2022-09-21T14:34:43;3.47;;;1.20;;
65691;SDS011;52411;52.716;6.696;2022-09-21T14:37:26;3.80;;;1.00;;
65691;SDS011;52411;52.716;6.696;2022-09-21T14:40:17;4.65;;;1.08;;
65691;SDS011;52411;52.716;6.696;2022-09-21T14:42:49;1.73;;;0.82;;
65691;SDS011;52411;52.716;6.696;2022-09-21T14:45:17;6.18;;;1.27;;
65691;SDS011;52411;52.716;6.696;2022-09-21T14:51:29;4.03;;;1.13;;
65691;SDS011;52411;52.716;6.696;2022-09-21T14:56:36;4.28;;;1.02;;
65691;SDS011;52411;52.716;6.696;2022-09-21T15:16:24;2.58;;;0.88;;
65691;SDS011;52411;52.716;6.696;2022-09-21T15:21:52;2.95;;;1.00;;
65691;SDS011;52411;52.716;6.696;2022-09-21T15:24:22;3.80;;;1.00;;
65691;SDS011;52411;52.716;6.696;2022-09-21T15:27:15;6.28;;;1.40;;
65691;SDS011;52411;52.716;6.696;2022-09-21T15:29:46;3.20;;;1.40;;
65691;SDS011;52411;52.716;6.696;2022-09-21T15:35:06;3.40;;;1.20;;
65691;SDS011;52411;52.716;6.696;2022-09-21T15:37:45;3.05;;;1.00;;
65691;SDS011;52411;52.716;6.696;2022-09-21T15:40:16;3.90;;;1.13;;
65691;SDS011;52411;52.716;6.696;2022-09-21T15:42:56;4.15;;;1.08;;
65691;SDS011;52411;52.716;6.696;2022-09-21T15:46:14;4.95;;;1.20;;
65691;SDS011;52411;52.716;6.696;2022-09-21T15:48:19;4.20;;;1.25;;
65691;SDS011;52411;52.716;6.696;2022-09-21T15:51:07;8.13;;;1.40;;
65691;SDS011;52411;52.716;6.696;2022-09-21T15:54:30;3.63;;;1.20;;
65691;SDS011;52411;52.716;6.696;2022-09-21T15:56:45;3.03;;;1.02;;
65691;SDS011;52411;52.716;6.696;2022-09-21T15:59:12;3.40;;;1.30;;
65691;SDS011;52411;52.716;6.696;2022-09-21T16:01:46;4.13;;;1.30;;
65691;SDS011;52411;52.716;6.696;2022-09-21T16:04:24;3.78;;;1.20;;
65691;SDS011;52411;52.716;6.696;2022-09-21T16:06:59;2.53;;;1.02;;
65691;SDS011;52411;52.716;6.696;2022-09-21T16:09:27;4.20;;;1.25;;
65691;SDS011;52411;52.716;6.696;2022-09-21T16:12:30;3.03;;;1.23;;
65691;SDS011;52411;52.716;6.696;2022-09-21T16:15:43;2.83;;;1.00;;
65691;SDS011;52411;52.716;6.696;2022-09-21T16:18:05;5.50;;;1.42;;
65691;SDS011;52411;52.716;6.696;2022-09-21T16:23:19;3.72;;;1.17;;
65691;SDS011;52411;52.716;6.696;2022-09-21T16:25:55;3.70;;;1.17;;
65691;SDS011;52411;52.716;6.696;2022-09-21T16:28:36;4.78;;;1.10;;
65691;SDS011;52411;52.716;6.696;2022-09-21T16:38:46;4.90;;;1.10;;
65691;SDS011;52411;52.716;6.696;2022-09-21T16:41:14;4.28;;;1.23;;
65691;SDS011;52411;52.716;6.696;2022-09-21T16:43:39;4.05;;;0.90;;
65691;SDS011;52411;52.716;6.696;2022-09-21T16:46:10;4.68;;;0.93;;
65691;SDS011;52411;52.716;6.696;2022-09-21T16:48:37;4.90;;;1.25;;
65691;SDS011;52411;52.716;6.696;2022-09-21T16:51:13;3.50;;;1.20;;
65691;SDS011;52411;52.716;6.696;2022-09-21T16:53:46;4.15;;;1.20;;
65691;SDS011;52411;52.716;6.696;2022-09-21T16:56:12;3.20;;;1.00;;
65691;SDS011;52411;52.716;6.696;2022-09-21T16:58:39;4.00;;;1.00;;
65691;SDS011;52411;52.716;6.696;2022-09-21T17:01:07;3.80;;;0.95;;
65691;SDS011;52411;52.716;6.696;2022-09-21T17:03:33;3.08;;;0.68;;
65691;SDS011;52411;52.716;6.696;2022-09-21T17:05:59;3.40;;;1.10;;
65691;SDS011;52411;52.716;6.696;2022-09-21T17:08:25;5.07;;;1.08;;
65691;SDS011;52411;52.716;6.696;2022-09-21T17:10:51;3.33;;;0.93;;
65691;SDS011;52411;52.716;6.696;2022-09-21T17:13:18;2.42;;;1.10;;
65691;SDS011;52411;52.716;6.696;2022-09-21T17:15:44;2.95;;;1.35;;
65691;SDS011;52411;52.716;6.696;2022-09-21T17:18:12;2.33;;;0.90;;
65691;SDS011;52411;52.716;6.696;2022-09-21T17:20:39;2.72;;;1.23;;
65691;SDS011;52411;52.716;6.696;2022-09-21T17:23:07;2.35;;;0.95;;
65691;SDS011;52411;52.716;6.696;2022-09-21T17:25:33;4.57;;;1.10;;
65691;SDS011;52411;52.716;6.696;2022-09-21T17:28:00;3.55;;;1.10;;
65691;SDS011;52411;52.716;6.696;2022-09-21T17:30:27;3.95;;;1.20;;
65691;SDS011;52411;52.716;6.696;2022-09-21T17:32:53;5.03;;;1.45;;
65691;SDS011;52411;52.716;6.696;2022-09-21T17:35:38;2.67;;;0.82;;
65691;SDS011;52411;52.716;6.696;2022-09-21T17:38:05;6.47;;;1.52;;
65691;SDS011;52411;52.716;6.696;2022-09-21T17:40:32;5.28;;;1.20;;
65691;SDS011;52411;52.716;6.696;2022-09-21T17:43:02;3.55;;;1.23;;
65691;SDS011;52411;52.716;6.696;2022-09-21T17:48:18;4.13;;;1.20;;
65691;SDS011;52411;52.716;6.696;2022-09-21T17:50:45;4.97;;;1.40;;
65691;SDS011;52411;52.716;6.696;2022-09-21T17:53:11;5.10;;;1.40;;
65691;SDS011;52411;52.716;6.696;2022-09-21T17:55:56;5.85;;;1.40;;
65691;SDS011;52411;52.716;6.696;2022-09-21T18:01:36;4.78;;;1.48;;
65691;SDS011;52411;52.716;6.696;2022-09-21T18:04:04;3.72;;;1.20;;
65691;SDS011;52411;52.716;6.696;2022-09-21T18:06:32;3.53;;;1.40;;
65691;SDS011;52411;52.716;6.696;2022-09-21T18:08:58;2.67;;;1.40;;
65691;SDS011;52411;52.716;6.696;2022-09-21T18:14:38;6.30;;;2.10;;
65691;SDS011;52411;52.716;6.696;2022-09-21T18:20:17;4.53;;;1.58;;
65691;SDS011;52411;52.716;6.696;2022-09-21T18:22:54;4.40;;;1.58;;
65691;SDS011;52411;52.716;6.696;2022-09-21T18:25:34;3.05;;;1.50;;